createdAt,value
2019-05-13T00:00:53.731Z,1.50
2019-05-13T00:03:24.937Z,1.93
2019-05-13T00:06:04.185Z,1.73
2019-05-13T00:08:34.911Z,1.63
2019-05-13T00:11:06.377Z,1.90
2019-05-13T00:13:37.191Z,2.13
2019-05-13T00:16:14.158Z,1.93
2019-05-13T00:18:40.610Z,2.03
2019-05-13T00:21:17.526Z,1.73
2019-05-13T00:23:48.328Z,1.63
2019-05-13T00:26:18.931Z,2.00
2019-05-13T00:28:53.425Z,1.80
2019-05-13T00:31:29.076Z,1.73
2019-05-13T00:34:09.776Z,1.80
2019-05-13T00:36:40.730Z,1.57
2019-05-13T00:39:11.610Z,1.80
2019-05-13T00:41:45.676Z,2.37
2019-05-13T00:44:16.627Z,1.33
2019-05-13T00:46:47.133Z,1.50
2019-05-13T00:49:19.273Z,1.90
2019-05-13T00:51:49.916Z,1.60
2019-05-13T00:54:20.456Z,2.00
2019-05-13T00:56:51.385Z,1.63
2019-05-13T00:59:24.104Z,2.13
2019-05-13T01:01:56.188Z,1.50
2019-05-13T01:04:26.765Z,1.57
2019-05-13T01:07:04.389Z,1.80
2019-05-13T01:09:35.869Z,1.43
2019-05-13T01:12:06.563Z,1.70
2019-05-13T01:14:37.416Z,1.73
2019-05-13T01:17:08.311Z,2.83
2019-05-13T01:19:39.031Z,1.53
2019-05-13T01:22:10.760Z,1.47
2019-05-13T01:24:45.680Z,2.43
2019-05-13T01:27:16.749Z,1.57
2019-05-13T01:29:49.939Z,1.60
2019-05-13T01:32:21.001Z,2.00
2019-05-13T01:34:53.842Z,2.00
2019-05-13T01:37:39.098Z,1.80
2019-05-13T01:39:58.200Z,1.93
2019-05-13T01:42:28.817Z,1.70
2019-05-13T01:44:59.473Z,1.70
2019-05-13T01:47:30.086Z,1.60
2019-05-13T01:50:03.800Z,1.77
2019-05-13T01:52:34.352Z,1.50
2019-05-13T01:55:05.241Z,2.17
2019-05-13T01:57:35.905Z,2.20
2019-05-13T02:00:07.371Z,1.80
2019-05-13T02:02:40.745Z,1.37
2019-05-13T02:05:13.798Z,2.10
2019-05-13T02:07:56.760Z,2.27
2019-05-13T02:10:24.505Z,1.70
2019-05-13T02:12:56.381Z,2.17
2019-05-13T02:15:27.196Z,1.90
2019-05-13T02:17:57.700Z,1.60
2019-05-13T02:20:28.264Z,1.80
2019-05-13T02:22:58.983Z,2.17
2019-05-13T02:25:29.582Z,1.97
2019-05-13T02:28:09.720Z,2.13
2019-05-13T02:30:35.539Z,2.03
2019-05-13T02:33:06.373Z,2.67
2019-05-13T02:35:36.971Z,2.07
2019-05-13T02:38:19.784Z,1.93
2019-05-13T02:40:45.312Z,1.93
2019-05-13T02:43:15.945Z,1.63
2019-05-13T02:45:47.450Z,2.87
2019-05-13T02:48:17.949Z,1.87
2019-05-13T02:50:48.570Z,2.50
2019-05-13T02:53:23.794Z,1.83
2019-05-13T02:55:54.582Z,1.90
2019-05-13T02:58:25.659Z,1.63
2019-05-13T03:00:56.153Z,2.60
2019-05-13T03:03:26.744Z,2.03
2019-05-13T03:05:58.328Z,2.00
2019-05-13T03:08:46.265Z,2.43
2019-05-13T03:11:02.970Z,2.03
2019-05-13T03:13:35.408Z,1.93
2019-05-13T03:16:32.496Z,1.70
2019-05-13T03:19:02.939Z,2.27
2019-05-13T03:21:33.594Z,2.40
2019-05-13T03:24:04.238Z,1.53
2019-05-13T03:26:35.078Z,2.10
2019-05-13T03:29:06.635Z,2.37
2019-05-13T03:31:37.239Z,2.00
2019-05-13T03:34:08.116Z,2.40
2019-05-13T03:36:45.441Z,2.17
2019-05-13T03:39:16.270Z,2.13
2019-05-13T03:41:48.034Z,1.83
2019-05-13T03:44:23.573Z,1.90
2019-05-13T03:46:57.126Z,2.30
2019-05-13T03:49:32.623Z,1.90
2019-05-13T03:52:03.293Z,1.53
2019-05-13T03:54:34.830Z,1.60
2019-05-13T03:57:06.795Z,1.83
2019-05-13T03:59:37.406Z,1.57
2019-05-13T04:02:08.142Z,1.97
2019-05-13T04:04:45.056Z,2.43
2019-05-13T04:07:15.591Z,2.17
2019-05-13T04:09:46.201Z,1.73
2019-05-13T04:12:16.855Z,2.23
2019-05-13T04:14:47.705Z,1.93
2019-05-13T04:17:18.335Z,2.47
2019-05-13T04:19:53.000Z,1.60
2019-05-13T04:22:23.330Z,1.63
2019-05-13T04:24:54.111Z,1.77
2019-05-13T04:27:24.692Z,2.20
2019-05-13T04:29:55.302Z,2.23
2019-05-13T04:32:33.178Z,3.20
2019-05-13T04:35:05.168Z,2.80
2019-05-13T04:37:37.314Z,2.07
2019-05-13T04:40:08.798Z,2.00
2019-05-13T04:42:42.627Z,2.60
2019-05-13T04:45:13.401Z,2.50
2019-05-13T04:47:47.084Z,2.57
2019-05-13T04:50:18.055Z,1.93
2019-05-13T04:52:48.646Z,2.53
2019-05-13T04:55:22.861Z,2.27
2019-05-13T04:57:58.732Z,2.47
2019-05-13T05:01:17.381Z,2.47
2019-05-13T05:03:58.467Z,3.17
2019-05-13T05:06:52.631Z,2.97
2019-05-13T05:10:17.376Z,1.80
2019-05-13T05:13:12.821Z,2.73
2019-05-13T05:16:05.323Z,2.23
2019-05-13T05:19:06.208Z,2.20
2019-05-13T05:21:44.869Z,2.70
2019-05-13T05:25:11.709Z,2.23
2019-05-13T05:28:24.198Z,2.10
2019-05-13T05:31:26.076Z,2.33
2019-05-13T05:34:21.900Z,2.60
2019-05-13T05:37:22.489Z,2.03
2019-05-13T05:39:58.084Z,2.33
2019-05-13T05:42:32.407Z,2.23
2019-05-13T05:45:11.468Z,3.07
2019-05-13T05:47:44.521Z,3.07
2019-05-13T05:50:16.330Z,2.80
2019-05-13T05:52:51.239Z,2.70
2019-05-13T05:55:23.988Z,3.00
2019-05-13T05:57:57.959Z,2.83
2019-05-13T06:00:28.705Z,2.50
2019-05-13T06:03:02.472Z,2.17
2019-05-13T06:05:34.633Z,2.20
2019-05-13T06:08:05.683Z,3.10
2019-05-13T06:10:46.446Z,3.13
2019-05-13T06:13:12.078Z,2.50
2019-05-13T06:15:42.337Z,3.37
2019-05-13T06:18:13.040Z,2.67
2019-05-13T06:20:43.840Z,3.00
2019-05-13T06:23:15.409Z,3.07
2019-05-13T06:25:47.051Z,3.30
2019-05-13T06:28:21.749Z,2.80
2019-05-13T06:30:54.833Z,3.00
2019-05-13T06:33:25.467Z,2.57
2019-05-13T06:35:56.073Z,2.67
2019-05-13T06:38:26.659Z,3.07
2019-05-13T06:41:03.274Z,2.70
2019-05-13T06:43:31.482Z,2.70
2019-05-13T06:46:02.210Z,2.70
2019-05-13T06:48:32.755Z,2.17
2019-05-13T06:51:11.578Z,3.13
2019-05-13T06:53:41.882Z,3.43
2019-05-13T06:56:14.315Z,2.90
2019-05-13T06:58:45.211Z,2.90
2019-05-13T07:01:22.021Z,3.07
2019-05-13T07:03:54.635Z,2.40
2019-05-13T07:06:29.077Z,3.53
2019-05-13T07:09:01.399Z,3.97
2019-05-13T07:11:33.843Z,2.57
2019-05-13T07:14:11.919Z,2.53
2019-05-13T07:16:46.439Z,2.70
2019-05-13T07:19:20.087Z,3.03
2019-05-13T07:21:52.142Z,2.80
2019-05-13T07:24:24.947Z,2.83
2019-05-13T07:26:55.568Z,3.10
2019-05-13T07:29:28.072Z,2.93
2019-05-13T07:32:01.477Z,3.00
2019-05-13T07:34:33.948Z,2.50
2019-05-13T07:37:07.605Z,2.63
2019-05-13T07:39:42.324Z,2.40
2019-05-13T07:42:22.386Z,2.70
2019-05-13T07:44:52.933Z,2.93
2019-05-13T07:47:23.488Z,2.87
2019-05-13T07:49:54.433Z,2.33
2019-05-13T07:52:27.192Z,2.63
2019-05-13T07:55:01.529Z,2.53
2019-05-13T07:57:35.245Z,2.93
2019-05-13T08:00:06.263Z,2.67
2019-05-13T08:02:37.256Z,2.97
2019-05-13T08:05:08.555Z,2.63
2019-05-13T08:07:39.203Z,3.30
2019-05-13T08:10:11.610Z,2.70
2019-05-13T08:12:42.332Z,2.57
2019-05-13T08:15:13.631Z,3.40
2019-05-13T08:17:47.551Z,2.50
2019-05-13T08:20:21.893Z,2.53
2019-05-13T08:22:52.086Z,2.50
2019-05-13T08:25:22.917Z,2.57
2019-05-13T08:27:57.871Z,2.23
2019-05-13T08:30:31.863Z,2.57
2019-05-13T08:33:04.017Z,2.50
2019-05-13T08:35:34.539Z,2.60
2019-05-13T08:38:05.384Z,2.80
2019-05-13T08:40:39.350Z,2.50
2019-05-13T08:43:12.190Z,3.10
2019-05-13T08:45:46.617Z,2.73
2019-05-13T08:48:32.303Z,3.23
2019-05-13T08:51:24.715Z,2.80
2019-05-13T08:53:58.345Z,2.63
2019-05-13T08:56:32.673Z,3.10
2019-05-13T08:59:08.608Z,2.80
2019-05-13T09:01:43.724Z,2.60
2019-05-13T09:04:14.871Z,2.40
2019-05-13T09:06:45.413Z,2.83
2019-05-13T09:09:21.982Z,3.00
2019-05-13T09:12:11.605Z,2.40
2019-05-13T09:14:48.287Z,2.80
2019-05-13T09:17:24.461Z,3.20
2019-05-13T09:19:56.806Z,3.67
2019-05-13T09:22:31.854Z,2.47
2019-05-13T09:25:07.814Z,2.93
2019-05-13T09:27:47.369Z,2.57
2019-05-13T09:30:18.222Z,2.73
2019-05-13T09:32:51.466Z,2.80
2019-05-13T09:35:23.459Z,2.67
2019-05-13T09:37:54.341Z,2.60
2019-05-13T09:40:25.183Z,2.67
2019-05-13T09:42:55.829Z,2.43
2019-05-13T09:45:26.689Z,2.87
2019-05-13T09:47:57.318Z,2.60
2019-05-13T09:50:32.309Z,3.13
2019-05-13T09:53:02.878Z,2.90
2019-05-13T09:55:37.906Z,2.10
2019-05-13T09:58:08.543Z,2.53
2019-05-13T10:00:42.546Z,2.00
2019-05-13T10:03:14.611Z,1.87
2019-05-13T10:05:45.653Z,2.07
2019-05-13T10:08:16.318Z,2.70
2019-05-13T10:10:47.093Z,2.70
2019-05-13T10:13:23.106Z,2.13
2019-05-13T10:15:56.870Z,1.90
2019-05-13T10:18:32.659Z,2.43
2019-05-13T10:21:07.661Z,2.23
2019-05-13T10:23:38.437Z,2.20
2019-05-13T10:26:13.491Z,1.90
2019-05-13T10:28:44.290Z,2.50
2019-05-13T10:31:17.047Z,1.53
2019-05-13T10:33:51.568Z,2.07
2019-05-13T10:36:24.980Z,1.97
2019-05-13T10:39:01.387Z,1.80
2019-05-13T10:41:33.548Z,1.97
2019-05-13T10:44:04.382Z,2.10
2019-05-13T10:46:35.277Z,2.27
2019-05-13T10:49:05.929Z,2.23
2019-05-13T10:51:37.328Z,2.70
2019-05-13T10:54:08.250Z,2.20
2019-05-13T10:56:43.090Z,2.73
2019-05-13T10:59:15.763Z,1.90
2019-05-13T11:01:47.223Z,2.67
2019-05-13T11:04:22.248Z,2.37
2019-05-13T11:06:52.918Z,2.10
2019-05-13T11:09:31.957Z,2.40
2019-05-13T11:12:28.957Z,2.37
2019-05-13T11:15:26.429Z,1.77
2019-05-13T11:17:57.064Z,1.80
2019-05-13T11:20:27.941Z,2.17
2019-05-13T11:22:58.917Z,2.03
2019-05-13T11:25:32.372Z,2.30
2019-05-13T11:28:04.781Z,2.57
2019-05-13T11:30:37.395Z,2.30
2019-05-13T11:33:10.500Z,1.80
2019-05-13T11:35:42.354Z,2.40
2019-05-13T11:38:14.837Z,1.60
2019-05-13T11:40:45.432Z,2.40
2019-05-13T11:43:21.554Z,2.10
2019-05-13T11:45:51.453Z,2.03
2019-05-13T11:48:32.561Z,1.60
2019-05-13T11:51:04.250Z,2.10
2019-05-13T11:53:38.493Z,1.40
2019-05-13T11:56:11.493Z,1.67
2019-05-13T11:58:47.094Z,2.10
2019-05-13T12:01:26.110Z,1.60
2019-05-13T12:04:03.841Z,1.80
2019-05-13T12:06:47.881Z,1.67
2019-05-13T12:09:15.808Z,1.67
2019-05-13T12:11:49.712Z,1.77
2019-05-13T12:14:42.877Z,1.30
2019-05-13T12:16:55.818Z,1.93
2019-05-13T12:19:26.538Z,1.87
2019-05-13T12:22:02.582Z,1.43
2019-05-13T12:24:42.277Z,2.20
2019-05-13T12:27:41.373Z,1.97
2019-05-13T12:30:41.925Z,1.80
2019-05-13T12:33:14.081Z,2.27
2019-05-13T12:35:53.057Z,1.60
2019-05-13T12:38:28.437Z,1.90
2019-05-13T12:41:14.940Z,2.00
2019-05-13T12:43:47.913Z,1.97
2019-05-13T12:46:24.684Z,2.23
2019-05-13T12:49:03.254Z,1.57
2019-05-13T12:51:35.174Z,1.50
2019-05-13T12:54:14.292Z,1.50
2019-05-13T12:56:52.170Z,1.47
2019-05-13T12:59:23.651Z,1.57
2019-05-13T13:02:03.267Z,1.73
2019-05-13T13:04:34.202Z,1.50
2019-05-13T13:07:06.373Z,2.43
2019-05-13T13:09:43.403Z,1.80
2019-05-13T13:12:17.852Z,1.43
2019-05-13T13:14:55.245Z,2.13
2019-05-13T13:17:31.069Z,3.40
2019-05-13T13:20:08.852Z,1.53
2019-05-13T13:22:35.563Z,1.60
2019-05-13T13:25:09.139Z,1.83
2019-05-13T13:28:03.990Z,2.13
2019-05-13T13:30:18.296Z,2.17
2019-05-13T13:32:54.799Z,2.20
2019-05-13T13:35:27.530Z,1.97
2019-05-13T13:38:04.258Z,1.70
2019-05-13T13:40:38.369Z,2.80
2019-05-13T13:43:24.699Z,2.40
2019-05-13T13:46:07.210Z,2.43
2019-05-13T13:48:26.885Z,2.00
2019-05-13T13:51:06.440Z,2.13
2019-05-13T13:53:38.610Z,2.43
2019-05-13T13:56:15.194Z,2.17
2019-05-13T13:58:48.787Z,1.80
2019-05-13T14:01:27.237Z,1.60
2019-05-13T14:03:54.908Z,1.73
2019-05-13T14:07:22.000Z,1.60
2019-05-13T14:09:14.123Z,1.60
2019-05-13T14:11:51.550Z,1.60
2019-05-13T14:14:27.821Z,1.80
2019-05-13T14:17:11.378Z,1.73
2019-05-13T14:19:48.791Z,2.10
2019-05-13T14:22:22.125Z,1.67
2019-05-13T14:24:59.505Z,2.20
2019-05-13T14:27:37.143Z,2.17
2019-05-13T14:30:16.401Z,1.80
2019-05-13T14:32:51.877Z,2.03
2019-05-13T14:35:23.965Z,2.30
2019-05-13T14:37:54.665Z,1.77
2019-05-13T14:40:28.422Z,2.20
2019-05-13T14:43:02.900Z,2.20
2019-05-13T14:45:32.688Z,2.00
2019-05-13T14:48:09.117Z,1.80
2019-05-13T14:50:41.775Z,1.93
2019-05-13T14:53:13.948Z,2.40
2019-05-13T14:55:46.603Z,2.57
2019-05-13T14:58:17.629Z,2.13
2019-05-13T15:01:07.011Z,2.63
2019-05-13T15:03:24.143Z,2.47
2019-05-13T15:05:56.345Z,2.57
2019-05-13T15:08:32.870Z,2.40
2019-05-13T15:11:04.736Z,2.70
2019-05-13T15:13:35.670Z,2.63
2019-05-13T15:16:12.336Z,1.90
2019-05-13T15:18:43.178Z,3.70
2019-05-13T15:21:18.681Z,2.43
2019-05-13T15:23:52.929Z,2.23
2019-05-13T15:26:27.421Z,2.63
2019-05-13T15:29:01.754Z,1.93
2019-05-13T15:31:38.102Z,2.50
2019-05-13T15:34:10.184Z,2.10
2019-05-13T15:36:41.891Z,1.90
2019-05-13T15:39:16.472Z,2.03
2019-05-13T15:41:49.094Z,2.40
2019-05-13T15:44:21.973Z,2.03
2019-05-13T15:46:52.843Z,1.60
2019-05-13T15:49:26.515Z,2.03
2019-05-13T15:52:01.898Z,1.70
2019-05-13T15:54:37.417Z,1.90
2019-05-13T15:57:12.040Z,1.87
2019-05-13T15:59:47.878Z,1.50
2019-05-13T16:02:31.336Z,2.00
2019-05-13T16:05:12.050Z,2.83
2019-05-13T16:07:51.646Z,1.57
2019-05-13T16:10:25.272Z,1.37
2019-05-13T16:12:55.791Z,1.67
2019-05-13T16:15:29.217Z,1.53
2019-05-13T16:18:03.033Z,1.57
2019-05-13T16:20:35.080Z,1.90
2019-05-13T16:23:07.255Z,1.77
2019-05-13T16:25:37.898Z,1.70
2019-05-13T16:28:08.498Z,1.30
2019-05-13T16:30:51.613Z,1.50
2019-05-13T16:33:22.408Z,1.30
2019-05-13T16:35:54.864Z,2.13
2019-05-13T16:38:32.580Z,1.90
2019-05-13T16:41:04.329Z,1.83
2019-05-13T16:43:35.232Z,1.40
2019-05-13T16:46:07.295Z,1.30
2019-05-13T16:48:41.605Z,1.67
2019-05-13T16:51:27.421Z,1.50
2019-05-13T16:53:58.001Z,1.80
2019-05-13T16:56:34.112Z,1.30
2019-05-13T16:59:06.349Z,1.27
2019-05-13T17:01:44.332Z,1.27
2019-05-13T17:04:16.787Z,1.40
2019-05-13T17:06:52.998Z,1.67
2019-05-13T17:09:22.929Z,2.07
2019-05-13T17:11:57.163Z,1.37
2019-05-13T17:14:36.482Z,1.47
2019-05-13T17:17:07.243Z,1.70
2019-05-13T17:19:42.266Z,1.57
2019-05-13T17:22:17.569Z,1.80
2019-05-13T17:24:54.351Z,1.87
2019-05-13T17:27:25.272Z,1.37
2019-05-13T17:30:02.228Z,2.47
2019-05-13T17:32:37.646Z,2.47
2019-05-13T17:35:11.877Z,1.70
2019-05-13T17:37:51.345Z,1.93
2019-05-13T17:40:24.702Z,1.47
2019-05-13T17:42:55.593Z,1.40
2019-05-13T17:45:31.313Z,1.97
2019-05-13T17:48:02.860Z,1.70
2019-05-13T17:50:34.404Z,1.30
2019-05-13T17:53:05.166Z,1.73
2019-05-13T17:55:44.287Z,1.80
2019-05-13T17:58:21.982Z,1.73
2019-05-13T18:00:52.940Z,1.50
2019-05-13T18:03:24.451Z,1.87
2019-05-13T18:06:02.357Z,1.40
2019-05-13T18:08:42.207Z,1.80
2019-05-13T18:11:13.366Z,1.80
2019-05-13T18:13:47.656Z,1.33
2019-05-13T18:16:21.934Z,1.20
2019-05-13T18:19:00.496Z,1.37
2019-05-13T18:21:33.149Z,1.50
2019-05-13T18:24:04.340Z,1.63
2019-05-13T18:26:36.907Z,2.00
2019-05-13T18:29:08.349Z,1.77
2019-05-13T18:31:46.197Z,1.60
2019-05-13T18:34:21.606Z,1.50
2019-05-13T18:36:57.720Z,3.10
2019-05-13T18:39:29.296Z,1.70
2019-05-13T18:42:04.395Z,2.10
2019-05-13T18:44:38.513Z,2.33
2019-05-13T18:47:18.583Z,2.90
2019-05-13T18:49:51.023Z,2.60
2019-05-13T18:52:27.788Z,2.63
2019-05-13T18:55:02.228Z,2.80
2019-05-13T18:57:33.273Z,2.40
2019-05-13T19:00:04.358Z,2.30
2019-05-13T19:02:38.267Z,2.30
2019-05-13T19:05:21.195Z,2.27
2019-05-13T19:07:52.414Z,2.40
2019-05-13T19:10:26.495Z,2.27
2019-05-13T19:13:01.667Z,2.03
2019-05-13T19:15:32.835Z,2.40
2019-05-13T19:18:05.330Z,2.43
2019-05-13T19:20:42.301Z,2.27
2019-05-13T19:23:14.351Z,2.27
2019-05-13T19:25:45.293Z,2.27
2019-05-13T19:28:22.811Z,2.50
2019-05-13T19:30:57.621Z,2.47
2019-05-13T19:33:36.828Z,2.43
2019-05-13T19:36:11.771Z,2.13
2019-05-13T19:38:47.780Z,2.63
2019-05-13T19:41:19.151Z,2.10
2019-05-13T19:43:51.174Z,2.13
2019-05-13T19:46:25.711Z,2.00
2019-05-13T19:49:01.984Z,2.13
2019-05-13T19:51:37.810Z,1.80
2019-05-13T19:54:11.886Z,1.63
2019-05-13T19:56:43.899Z,1.43
2019-05-13T19:59:15.476Z,2.00
2019-05-13T20:01:52.088Z,1.73
2019-05-13T20:04:26.350Z,1.53
2019-05-13T20:07:05.300Z,1.83
2019-05-13T20:09:37.694Z,1.80
2019-05-13T20:12:15.761Z,1.43
2019-05-13T20:14:57.616Z,2.10
2019-05-13T20:17:32.176Z,2.00
2019-05-13T20:20:12.155Z,2.03
2019-05-13T20:22:51.796Z,2.03
2019-05-13T20:25:23.938Z,1.60
2019-05-13T20:27:56.456Z,2.07
2019-05-13T20:30:29.293Z,1.73
2019-05-13T20:33:02.383Z,1.80
2019-05-13T20:35:36.339Z,1.60
2019-05-13T20:38:07.849Z,1.80
2019-05-13T20:40:44.000Z,1.90
2019-05-13T20:43:16.424Z,1.50
2019-05-13T20:45:47.767Z,1.50
2019-05-13T20:48:21.256Z,1.67
2019-05-13T20:50:53.907Z,1.97
2019-05-13T20:53:33.210Z,1.40
2019-05-13T20:56:07.236Z,1.60
2019-05-13T20:58:48.759Z,1.53
2019-05-13T21:01:22.982Z,1.70
2019-05-13T21:03:53.944Z,2.03
2019-05-13T21:06:26.715Z,1.80
2019-05-13T21:09:05.177Z,2.17
2019-05-13T21:11:43.997Z,1.83
2019-05-13T21:14:16.831Z,2.17
2019-05-13T21:16:53.435Z,1.97
2019-05-13T21:19:39.357Z,1.90
2019-05-13T21:22:08.904Z,1.77
2019-05-13T21:24:42.422Z,1.80
2019-05-13T21:27:13.771Z,2.00
2019-05-13T21:29:44.527Z,1.50
2019-05-13T21:32:17.706Z,1.73
2019-05-13T21:34:53.196Z,1.83
2019-05-13T21:37:27.567Z,2.27
2019-05-13T21:39:58.398Z,1.47
2019-05-13T21:42:32.132Z,1.50
2019-05-13T21:45:03.436Z,1.70
2019-05-13T21:47:37.387Z,1.70
2019-05-13T21:50:11.329Z,1.50
2019-05-13T21:52:42.009Z,1.73
2019-05-13T21:55:14.210Z,2.10
2019-05-13T21:57:44.872Z,1.70
2019-05-13T22:00:23.451Z,1.77
2019-05-13T22:02:57.719Z,1.87
2019-05-13T22:05:31.548Z,1.77
2019-05-13T22:08:05.332Z,1.90
2019-05-13T22:10:36.008Z,2.30
2019-05-13T22:13:15.844Z,2.57
2019-05-13T22:15:52.350Z,2.40
2019-05-13T22:18:24.570Z,2.03
2019-05-13T22:21:03.098Z,2.67
2019-05-13T22:23:36.892Z,2.40
2019-05-13T22:26:11.719Z,2.70
2019-05-13T22:28:51.234Z,2.13
2019-05-13T22:31:22.366Z,2.20
2019-05-13T22:33:55.096Z,1.90
2019-05-13T22:36:31.787Z,2.63
2019-05-13T22:39:02.926Z,2.30
2019-05-13T22:41:36.602Z,2.40
2019-05-13T22:44:15.910Z,2.00
2019-05-13T22:46:48.699Z,2.33
2019-05-13T22:49:19.247Z,2.83
2019-05-13T22:51:51.566Z,2.87
2019-05-13T22:54:22.407Z,2.27
2019-05-13T22:56:53.902Z,2.63
2019-05-13T22:59:32.200Z,2.27
2019-05-13T23:02:02.210Z,2.77
2019-05-13T23:04:33.077Z,2.20
2019-05-13T23:07:03.706Z,2.00
2019-05-13T23:09:36.204Z,2.50
2019-05-13T23:12:09.580Z,2.47
2019-05-13T23:14:41.401Z,2.80
2019-05-13T23:17:13.079Z,2.37
2019-05-13T23:19:43.961Z,2.33
2019-05-13T23:22:14.829Z,2.57
2019-05-13T23:24:45.881Z,2.43
2019-05-13T23:27:16.457Z,2.20
2019-05-13T23:29:47.281Z,2.27
2019-05-13T23:32:17.945Z,2.57
2019-05-13T23:34:48.449Z,2.97
2019-05-13T23:37:22.069Z,2.77
2019-05-13T23:39:53.117Z,2.23
2019-05-13T23:42:23.738Z,2.63
2019-05-13T23:44:54.553Z,2.70
2019-05-13T23:47:25.119Z,2.37
2019-05-13T23:49:55.657Z,2.07
2019-05-13T23:52:26.704Z,2.53
2019-05-13T23:54:57.301Z,2.43
2019-05-13T23:57:27.811Z,2.10
2019-05-13T23:59:58.436Z,2.40
